Time;durP1;ratioP1;P1;durP2;ratioP2;P2;SDS_P1;SDS_P2;PMS_P1;PMS_P2;Temp;Humidity;BMP_temperature;BMP_pressure;BME280_temperature;BME280_humidity;BME280_pressure;Samples;Min_cycle;Max_cycle;Signal;HPM_P1;HPM_P2
2024/04/12 00:01:20;;;;;;;4.90;2.40;;;;;;;17.90;39.29;101149.17;108421;1251;61637;-66
2024/04/12 00:03:48;;;;;;;7.50;2.50;;;;;;;17.75;39.46;101146.17;108369;1251;61120;-66
2024/04/12 00:06:15;;;;;;;6.90;2.50;;;;;;;17.60;39.65;101146.70;108410;1249;73840;-66
2024/04/12 00:08:53;;;;;;;5.90;2.20;;;;;;;17.32;40.27;101145.82;108394;1251;70484;-66
2024/04/12 00:11:21;;;;;;;8.00;2.20;;;;;;;17.29;40.36;101147.76;108377;1251;72963;-66
2024/04/12 00:13:52;;;;;;;8.10;3.10;;;;;;;17.25;40.53;101144.74;108361;1251;61188;-66
2024/04/12 00:16:25;;;;;;;5.00;2.80;;;;;;;17.26;40.26;101142.21;108387;1251;60473;-66
2024/04/12 00:19:12;;;;;;;12.90;3.10;;;;;;;17.43;40.00;101142.95;108363;1251;73437;-66
2024/04/12 00:21:46;;;;;;;4.60;2.30;;;;;;;17.43;40.01;101144.05;108359;1252;69935;-66
2024/04/12 00:24:14;;;;;;;4.60;2.60;;;;;;;17.28;40.25;101145.11;108301;1251;71270;-66
2024/04/12 00:26:45;;;;;;;6.60;2.50;;;;;;;17.16;40.73;101143.92;108326;1250;61145;-66
2024/04/12 00:29:25;;;;;;;10.30;2.60;;;;;;;17.27;40.55;101144.98;108324;1255;60406;-65
2024/04/12 00:32:03;;;;;;;4.50;2.20;;;;;;;17.23;40.52;101147.50;108340;1251;73721;-65
2024/04/12 00:34:37;;;;;;;4.40;2.10;;;;;;;17.24;40.89;101146.76;108361;1251;70771;-66
2024/04/12 00:37:09;;;;;;;7.30;2.20;;;;;;;17.16;40.88;101148.19;108332;1252;71413;-66
2024/04/12 00:39:38;;;;;;;7.10;2.10;;;;;;;17.16;40.84;101147.66;108345;1256;61096;-66
2024/04/12 00:42:09;;;;;;;6.20;2.00;;;;;;;17.14;40.99;101150.05;108349;1250;61070;-66
2024/04/12 00:44:41;;;;;;;7.80;2.50;;;;;;;17.07;41.20;101155.54;108401;1251;73444;-66
2024/04/12 00:47:15;;;;;;;9.40;2.70;;;;;;;17.06;41.21;101149.55;108384;1251;68719;-66
2024/04/12 00:49:49;;;;;;;8.00;2.60;;;;;;;17.18;41.09;101149.30;108440;1251;71086;-65
2024/04/12 00:52:22;;;;;;;4.50;2.30;;;;;;;17.09;41.29;101149.08;108273;1254;61166;-66
2024/04/12 00:54:54;;;;;;;9.60;2.80;;;;;;;16.92;41.63;101147.17;108384;1251;61911;-66
2024/04/12 00:57:21;;;;;;;10.30;2.80;;;;;;;16.77;41.72;101143.98;108299;1256;74560;-66
2024/04/12 00:59:51;;;;;;;14.70;3.40;;;;;;;16.75;41.68;101143.89;108254;1251;70053;-66
2024/04/12 01:02:21;;;;;;;5.80;2.50;;;;;;;16.73;42.12;101142.21;108349;1256;71657;-65
2024/04/12 01:04:49;;;;;;;8.10;2.50;;;;;;;16.86;42.38;101140.73;108337;1251;61311;-65
2024/04/12 01:07:18;;;;;;;9.70;3.00;;;;;;;16.75;42.52;101141.75;108368;1252;60971;-66
2024/04/12 01:09:45;;;;;;;4.70;2.40;;;;;;;16.69;42.36;101142.21;108392;1251;73521;-65
2024/04/12 01:12:19;;;;;;;13.00;3.10;;;;;;;16.62;42.43;101141.48;108358;1251;70294;-65
2024/04/12 01:14:46;;;;;;;6.00;2.50;;;;;;;16.63;42.42;101142.29;108375;1255;72694;-66
2024/04/12 01:17:13;;;;;;;7.60;2.80;;;;;;;16.59;42.48;101141.77;108321;1252;61099;-65
2024/04/12 01:19:41;;;;;;;7.40;3.30;;;;;;;16.44;42.61;101139.81;108389;1251;61222;-67
2024/04/12 01:22:08;;;;;;;5.40;2.20;;;;;;;16.49;42.54;101142.23;108367;1252;72602;-66
2024/04/12 01:24:39;;;;;;;5.30;2.80;;;;;;;16.21;43.13;101141.90;108356;1251;68910;-66
2024/04/12 01:27:06;;;;;;;8.20;3.50;;;;;;;16.10;43.42;101143.09;108324;1256;73113;-66
2024/04/12 01:29:34;;;;;;;7.80;3.50;;;;;;;16.13;43.42;101139.77;108430;1254;61338;-66
2024/04/12 01:32:04;;;;;;;5.70;2.70;;;;;;;16.16;43.34;101140.52;108346;1250;61125;-67
2024/04/12 01:34:31;;;;;;;9.00;3.00;;;;;;;16.08;43.53;101139.29;108361;1256;73274;-65
2024/04/12 01:37:03;;;;;;;8.10;3.40;;;;;;;16.01;43.55;101141.02;108460;1250;69312;-66
2024/04/12 01:39:34;;;;;;;8.00;2.80;;;;;;;15.92;43.68;101139.98;108365;1251;72657;-65
2024/04/12 01:42:04;;;;;;;;;;;;;;;15.76;43.91;101138.73;108399;1250;61261;-66
2024/04/12 01:44:32;;;;;;;6.80;2.90;;;;;;;15.69;43.92;101133.52;108395;1251;61086;-66
2024/04/12 01:47:03;;;;;;;9.10;2.70;;;;;;;15.46;44.27;101130.02;108404;1251;74622;-67
2024/04/12 01:49:33;;;;;;;;;;;;;;;15.51;44.15;101129.11;108301;1255;70344;-66
2024/04/12 01:52:03;;;;;;;9.00;2.90;;;;;;;15.46;44.05;101129.83;108278;1251;71169;-66
2024/04/12 01:54:32;;;;;;;10.70;3.10;;;;;;;15.58;43.81;101130.39;108319;1251;61164;-65
2024/04/12 01:57:03;;;;;;;9.30;3.10;;;;;;;15.74;43.75;101135.27;108367;1251;61052;-65
2024/04/12 01:59:31;;;;;;;;;;;;;;;15.82;43.72;101134.58;108397;1251;74534;-66
2024/04/12 02:02:00;;;;;;;8.70;2.70;;;;;;;15.83;43.68;101134.34;108450;1255;70005;-66
2024/04/12 02:04:34;;;;;;;9.20;2.80;;;;;;;15.79;43.75;101138.06;108419;1251;72781;-65
2024/04/12 02:07:01;;;;;;;7.10;3.20;;;;;;;15.69;43.92;101139.86;108400;1252;61241;-65
2024/04/12 02:09:29;;;;;;;9.40;3.10;;;;;;;15.74;43.88;101137.38;108598;1250;61362;-65
2024/04/12 02:11:57;;;;;;;6.10;2.50;;;;;;;15.87;43.67;101133.83;108424;1250;73438;-66
2024/04/12 02:14:24;;;;;;;9.60;2.70;;;;;;;15.89;43.49;101133.72;108430;1251;70278;-65
2024/04/12 02:16:53;;;;;;;8.70;3.10;;;;;;;15.99;43.31;101134.02;108360;1250;72683;-66
2024/04/12 02:19:21;;;;;;;9.00;3.00;;;;;;;15.99;43.30;101134.38;108362;1252;60988;-66
2024/04/12 02:24:26;;;;;;;11.50;3.20;;;;;;;16.25;44.13;101135.59;104761;1294;599828;-66
2024/04/12 02:26:53;;;;;;;10.70;3.30;;;;;;;17.47;40.85;101135.15;107332;1266;59554;-67
2024/04/12 02:29:21;;;;;;;7.80;3.10;;;;;;;16.98;41.52;101136.98;107346;1266;60081;-66
2024/04/12 02:31:48;;;;;;;7.60;3.60;;;;;;;16.92;41.81;101133.52;107329;1265;73484;-66
2024/04/12 02:34:15;;;;;;;11.90;3.10;;;;;;;16.82;42.02;101134.70;107295;1266;70572;-66
2024/04/12 02:36:42;;;;;;;11.60;3.30;;;;;;;16.77;42.08;101138.83;107167;1264;134855;-66
2024/04/12 02:39:08;;;;;;;10.90;3.70;;;;;;;16.56;42.61;101139.42;107466;1263;59617;-65
2024/04/12 02:41:37;;;;;;;13.10;3.20;;;;;;;16.44;42.83;101137.69;107383;1264;60269;-66
2024/04/12 02:44:06;;;;;;;12.30;3.70;;;;;;;16.12;43.35;101143.91;107432;1264;73250;-66
2024/04/12 02:46:32;;;;;;;15.80;3.60;;;;;;;16.44;42.90;101139.27;107922;1256;70310;-66
2024/04/12 02:49:04;;;;;;;9.80;3.40;;;;;;;16.14;43.54;101143.28;107711;1259;73219;-66
2024/04/12 02:51:31;;;;;;;7.30;2.80;;;;;;;15.94;44.09;101147.33;107786;1258;60659;-66
2024/04/12 02:53:58;;;;;;;19.00;3.20;;;;;;;15.65;44.50;101145.72;107748;1258;59209;-66
2024/04/12 02:56:25;;;;;;;7.30;3.30;;;;;;;15.52;44.64;101148.55;107798;1258;74029;-66
2024/04/12 02:58:52;;;;;;;11.30;3.20;;;;;;;15.46;44.86;101146.51;107785;1259;69627;-66
2024/04/12 03:01:26;;;;;;;10.60;3.70;;;;;;;15.45;44.87;101149.37;107762;1259;73054;-66
2024/04/12 03:03:58;;;;;;;9.30;3.40;;;;;;;15.46;44.91;101146.30;107758;1262;60312;-66
2024/04/12 03:06:26;;;;;;;10.60;3.20;;;;;;;15.49;45.05;101146.91;107794;1259;60442;-66
2024/04/12 03:08:53;;;;;;;8.50;3.20;;;;;;;15.40;45.32;101147.09;107803;1258;72353;-66
2024/04/12 03:11:21;;;;;;;6.60;3.30;;;;;;;15.26;45.48;101150.69;107811;1259;70300;-66
2024/04/12 03:14:03;;;;;;;13.20;3.80;;;;;;;14.93;46.18;101157.08;107784;1259;72492;-67
2024/04/12 03:16:30;;;;;;;9.10;3.30;;;;;;;14.89;46.23;101165.91;107836;1256;61194;-65
2024/04/12 03:18:58;;;;;;;6.50;3.20;;;;;;;15.05;45.97;101161.94;107928;1256;60327;-66
2024/04/12 03:21:28;;;;;;;8.60;4.00;;;;;;;15.18;45.83;101157.00;107830;1257;74257;-66
2024/04/12 03:23:57;;;;;;;11.70;3.60;;;;;;;15.05;46.16;101153.80;107812;1257;69167;-67
2024/04/12 03:26:27;;;;;;;7.50;2.90;;;;;;;15.05;46.28;101154.48;107704;1257;72850;-65
2024/04/12 03:28:54;;;;;;;11.90;3.30;;;;;;;15.22;45.98;101152.39;107712;1257;60949;-66
2024/04/12 03:31:25;;;;;;;9.60;3.20;;;;;;;15.28;45.77;101155.87;107883;1257;60307;-66
2024/04/12 03:33:55;;;;;;;14.70;3.80;;;;;;;15.29;46.06;101159.38;107717;1257;74197;-66
2024/04/12 03:36:27;;;;;;;12.20;3.50;;;;;;;15.20;46.38;101161.17;107713;1256;68886;-66
2024/04/12 03:39:24;;;;;;;13.80;3.70;;;;;;;15.53;45.73;101160.38;107777;1256;72462;-66
2024/04/12 03:42:18;;;;;;;10.40;3.20;;;;;;;15.69;45.44;101156.86;107820;1256;61259;-66
2024/04/12 03:44:42;;;;;;;13.20;3.20;;;;;;;15.89;45.26;101158.90;107823;1256;60438;-66
2024/04/12 03:47:09;;;;;;;7.00;2.60;;;;;;;15.88;45.18;101157.69;107771;1256;73564;-66
2024/04/12 03:49:40;;;;;;;8.60;3.50;;;;;;;15.66;45.84;101163.19;107781;1256;70142;-66
2024/04/12 03:52:13;;;;;;;8.80;3.00;;;;;;;15.70;45.73;101164.43;107774;1256;71283;-66
2024/04/12 03:54:43;;;;;;;6.00;3.20;;;;;;;15.70;45.49;101167.98;107770;1257;60271;-66
2024/04/12 03:57:09;;;;;;;17.00;4.00;;;;;;;15.96;45.16;101165.13;107737;1257;60518;-67
2024/04/12 03:59:38;;;;;;;11.10;3.80;;;;;;;15.98;45.04;101165.77;107800;1256;73535;-66
2024/04/12 04:02:07;;;;;;;9.60;3.60;;;;;;;16.01;45.43;101169.70;107866;1260;70329;-66
2024/04/12 04:04:47;;;;;;;9.20;3.20;;;;;;;16.39;45.33;101168.71;107799;1256;72359;-67
2024/04/12 04:07:15;;;;;;;7.70;3.00;;;;;;;16.84;44.74;101169.38;107854;1256;60824;-67
2024/04/12 04:09:42;;;;;;;10.40;3.60;;;;;;;17.40;43.70;101167.08;107891;1256;60325;-66
2024/04/12 04:12:14;;;;;;;9.50;2.70;;;;;;;17.84;42.81;101164.04;107879;1258;73600;-67
2024/04/12 04:14:48;;;;;;;9.70;3.00;;;;;;;18.21;42.05;101166.39;107905;1256;69070;-66
2024/04/12 04:17:15;;;;;;;11.80;3.80;;;;;;;18.73;41.40;101167.88;107850;1256;72543;-67
2024/04/12 04:19:42;;;;;;;10.20;3.20;;;;;;;19.24;40.44;101159.56;107812;1256;62726;-66
2024/04/12 04:24:57;;;;;;;9.20;3.00;;;;;;;19.88;39.13;101164.77;107838;1258;72401;-66
2024/04/12 04:27:24;;;;;;;11.10;3.40;;;;;;;20.52;37.91;101163.59;107772;1256;70041;-67
2024/04/12 04:29:52;;;;;;;11.60;3.20;;;;;;;20.86;37.03;101166.98;107840;1260;72696;-67
2024/04/12 04:32:21;;;;;;;7.40;2.90;;;;;;;21.11;36.36;101164.88;107877;1256;62329;-67
2024/04/12 04:34:54;;;;;;;10.00;3.00;;;;;;;21.52;35.71;101165.75;107805;1256;60391;-66
2024/04/12 04:37:21;;;;;;;8.40;2.90;;;;;;;21.85;34.86;101162.84;107813;1258;73899;-66
2024/04/12 04:39:58;;;;;;;8.00;2.70;;;;;;;22.13;34.48;101160.02;107839;1256;69704;-68
2024/04/12 04:42:25;;;;;;;7.50;2.70;;;;;;;22.65;33.10;101160.18;107842;1256;71461;-67
2024/04/12 04:44:52;;;;;;;9.20;3.40;;;;;;;23.05;32.65;101160.34;107772;1260;60527;-67
2024/04/12 04:47:23;;;;;;;7.70;2.40;;;;;;;23.43;32.02;101159.73;107811;1256;60558;-67
2024/04/12 04:49:50;;;;;;;;;;;;;;;23.96;31.48;101161.47;107779;1256;72655;-67
2024/04/12 04:52:17;;;;;;;6.60;2.70;;;;;;;24.32;30.53;101163.19;107771;1256;70273;-66
2024/04/12 04:54:43;;;;;;;8.50;2.60;;;;;;;24.64;29.72;101164.02;107745;1256;71519;-66
2024/04/12 04:57:10;;;;;;;7.30;2.40;;;;;;;24.97;29.54;101168.20;107776;1256;61613;-67
2024/04/12 04:59:37;;;;;;;18.30;2.90;;;;;;;25.52;28.38;101163.83;107890;1256;60297;-67
2024/04/12 05:02:03;;;;;;;7.00;2.70;;;;;;;25.67;28.07;101164.98;107714;1256;74029;-68
2024/04/12 05:04:33;;;;;;;9.50;2.50;;;;;;;26.10;27.82;101166.56;107826;1256;71540;-67
2024/04/12 05:07:00;;;;;;;9.50;2.90;;;;;;;26.49;27.13;101172.89;107868;1260;72688;-66
2024/04/12 05:09:27;;;;;;;11.30;3.00;;;;;;;26.69;26.90;101173.51;107848;1256;60309;-66
2024/04/12 05:11:54;;;;;;;6.60;2.40;;;;;;;26.84;26.58;101173.48;107810;1256;60238;-68
2024/04/12 05:17:04;;;;;;;10.90;2.60;;;;;;;27.26;26.05;101181.52;107775;1257;70339;-66
2024/04/12 05:19:40;;;;;;;9.80;2.70;;;;;;;27.34;25.75;101178.69;107752;1257;71056;-65
2024/04/12 05:22:07;;;;;;;7.80;3.00;;;;;;;27.54;25.42;101176.30;107754;1257;60638;-67
2024/04/12 05:24:35;;;;;;;6.80;2.40;;;;;;;27.78;25.18;101177.16;107798;1257;60439;-66
2024/04/12 05:27:05;;;;;;;9.50;2.50;;;;;;;28.12;24.85;101174.93;107834;1257;73821;-68
2024/04/12 05:29:33;;;;;;;8.90;2.60;;;;;;;28.56;23.83;101174.46;107768;1257;71310;-67
2024/04/12 05:32:00;;;;;;;8.80;2.70;;;;;;;28.58;23.95;101176.63;107820;1257;72534;-67
2024/04/12 05:34:26;;;;;;;6.80;2.40;;;;;;;28.57;23.74;101172.98;107741;1257;60489;-67
2024/04/12 05:37:03;;;;;;;5.80;2.20;;;;;;;28.79;23.63;101165.92;107772;1256;60394;-69
2024/04/12 05:39:35;;;;;;;8.50;2.70;;;;;;;28.94;23.15;101168.75;107807;1256;73609;-67
2024/04/12 05:42:05;;;;;;;9.70;2.60;;;;;;;28.95;23.12;101167.58;107868;1256;70389;-67
2024/04/12 05:44:35;;;;;;;7.40;2.60;;;;;;;29.14;22.93;101170.08;107891;1256;72450;-67
2024/04/12 05:47:02;;;;;;;7.10;2.60;;;;;;;29.45;22.92;101166.27;107875;1256;60330;-67
2024/04/12 05:49:33;;;;;;;6.50;2.20;;;;;;;29.84;22.29;101166.67;107908;1256;60291;-66
2024/04/12 05:52:03;;;;;;;6.30;2.20;;;;;;;30.35;21.90;101171.09;107845;1256;74243;-68
2024/04/12 05:54:45;;;;;;;8.40;2.60;;;;;;;30.78;21.29;101169.39;107885;1256;70410;-67
2024/04/12 05:57:11;;;;;;;11.20;3.00;;;;;;;31.00;21.06;101165.11;107824;1256;72555;-68
2024/04/12 05:59:44;;;;;;;9.30;2.60;;;;;;;31.13;21.08;101167.74;107727;1256;61484;-67
2024/04/12 06:02:14;;;;;;;7.30;2.40;;;;;;;31.49;20.65;101162.52;107925;1256;60400;-66
2024/04/12 06:04:46;;;;;;;7.80;2.40;;;;;;;31.74;20.27;101158.73;107771;1256;73808;-66
2024/04/12 06:07:13;;;;;;;7.20;2.50;;;;;;;31.95;19.94;101158.94;107829;1257;70278;-68
2024/04/12 06:09:40;;;;;;;8.40;2.30;;;;;;;32.00;19.69;101160.23;107848;1256;74111;-67
2024/04/12 06:12:07;;;;;;;12.10;2.50;;;;;;;32.04;19.49;101160.47;107769;1256;62087;-68
2024/04/12 06:14:38;;;;;;;8.30;2.20;;;;;;;32.05;19.31;101155.63;107914;1260;60333;-67
2024/04/12 06:17:08;;;;;;;5.70;2.00;;;;;;;32.35;19.38;101156.26;107771;1260;74966;-68
2024/04/12 06:19:37;;;;;;;6.10;2.50;;;;;;;32.64;18.95;101160.27;107786;1256;70429;-67
2024/04/12 06:22:04;;;;;;;8.70;2.40;;;;;;;32.80;18.41;101160.01;107789;1256;70906;-68
2024/04/12 06:24:31;;;;;;;6.90;2.40;;;;;;;33.11;17.94;101154.78;107839;1256;60383;-67
2024/04/12 06:26:59;;;;;;;12.60;2.90;;;;;;;33.25;17.32;101160.98;107846;1256;60358;-68
2024/04/12 06:29:28;;;;;;;8.40;1.90;;;;;;;33.11;17.60;101149.20;107861;1256;74050;-66
2024/04/12 06:32:06;;;;;;;8.60;2.00;;;;;;;32.92;17.66;101159.02;107867;1256;70270;-68
2024/04/12 06:34:37;;;;;;;9.10;2.60;;;;;;;32.94;17.45;101163.07;107816;1256;73654;-68
2024/04/12 06:37:08;;;;;;;5.30;2.00;;;;;;;33.18;17.20;101162.76;107742;1256;61132;-67
2024/04/12 06:39:35;;;;;;;8.20;2.40;;;;;;;33.40;17.08;101160.54;107743;1257;60429;-68
2024/04/12 06:42:06;;;;;;;7.70;2.20;;;;;;;33.47;16.79;101155.12;107758;1257;74638;-66
2024/04/12 06:44:32;;;;;;;8.80;2.20;;;;;;;33.75;16.68;101152.96;107808;1257;70771;-68
2024/04/12 06:47:00;;;;;;;8.40;2.40;;;;;;;33.65;16.28;101153.88;107696;1258;73884;-68
2024/04/12 06:49:27;;;;;;;10.40;2.70;;;;;;;33.50;16.57;101158.46;107739;1257;61202;-68
2024/04/12 06:52:11;;;;;;;11.30;2.60;;;;;;;33.37;17.03;101158.81;107744;1258;61096;-68
2024/04/12 06:54:42;;;;;;;10.40;2.60;;;;;;;33.54;16.82;101159.79;107727;1257;75696;-68
2024/04/12 06:57:17;;;;;;;7.30;2.60;;;;;;;33.82;16.73;101157.33;107724;1257;70756;-68
2024/04/12 06:59:52;;;;;;;10.10;2.60;;;;;;;34.05;16.58;101157.73;107687;1258;64055;-67
2024/04/12 07:02:26;;;;;;;9.00;2.40;;;;;;;34.03;16.25;101161.73;107698;1260;60404;-67
2024/04/12 07:04:54;;;;;;;8.30;2.20;;;;;;;33.67;15.99;101157.36;107764;1257;59870;-69
2024/04/12 07:07:24;;;;;;;9.60;2.40;;;;;;;33.69;16.21;101153.27;107720;1257;73406;-68
2024/04/12 07:09:51;;;;;;;6.60;2.10;;;;;;;33.93;15.79;101160.15;107703;1257;68199;-69
2024/04/12 07:12:19;;;;;;;9.30;2.40;;;;;;;34.19;15.98;101161.06;107746;1257;64151;-68
2024/04/12 07:14:50;;;;;;;7.10;2.00;;;;;;;34.21;15.68;101158.35;107769;1259;61316;-68
2024/04/12 07:17:28;;;;;;;8.60;2.80;;;;;;;34.22;15.75;101158.41;107708;1258;60912;-68
2024/04/12 07:19:57;;;;;;;8.40;2.00;;;;;;;33.96;15.61;101155.19;107804;1257;66565;-68
2024/04/12 07:22:26;;;;;;;8.90;2.30;;;;;;;33.72;15.69;101163.09;107612;1258;68946;-68
2024/04/12 07:24:54;;;;;;;8.70;2.40;;;;;;;33.79;15.67;101163.70;107721;1257;71580;-67
2024/04/12 07:27:27;;;;;;;12.20;2.80;;;;;;;33.52;15.32;101159.65;107760;1257;61186;-67
2024/04/12 07:29:54;;;;;;;7.30;2.00;;;;;;;33.24;15.50;101164.06;107688;1261;61266;-67
2024/04/12 07:32:23;;;;;;;10.30;2.30;;;;;;;33.18;15.74;101160.55;107761;1257;74676;-67
2024/04/12 07:34:51;;;;;;;10.10;2.50;;;;;;;33.47;15.57;101158.06;107787;1257;71585;-68
2024/04/12 07:37:28;;;;;;;11.20;3.20;;;;;;;33.67;15.29;101154.12;107822;1256;71615;-68
2024/04/12 07:40:20;;;;;;;5.60;2.20;;;;;;;33.74;15.46;101152.31;108038;1253;61058;-67
2024/04/12 07:42:48;;;;;;;11.60;2.90;;;;;;;33.73;15.12;101155.86;108065;1253;61237;-67
2024/04/12 07:45:25;;;;;;;11.90;3.50;;;;;;;33.78;15.55;101153.43;108063;1253;74681;-66
2024/04/12 07:50:41;;;;;;;7.30;2.10;;;;;;;33.76;15.16;101152.30;108114;1253;72458;-67
2024/04/12 07:53:15;;;;;;;13.30;2.60;;;;;;;33.62;15.33;101147.83;108099;1257;60342;-68
2024/04/12 07:55:42;;;;;;;12.30;2.80;;;;;;;33.61;15.28;101141.96;108044;1253;60351;-67
2024/04/12 07:58:13;;;;;;;7.70;2.20;;;;;;;33.69;15.08;101147.31;107953;1253;74477;-68
2024/04/12 08:00:45;;;;;;;10.70;2.70;;;;;;;33.75;15.14;101147.08;108142;1253;70372;-67
2024/04/12 08:03:16;;;;;;;7.00;2.10;;;;;;;33.82;14.98;101151.02;108134;1253;62871;-67
2024/04/12 08:05:59;;;;;;;7.00;2.30;;;;;;;33.88;15.11;101147.03;108104;1253;61145;-68
2024/04/12 08:08:27;;;;;;;6.00;2.40;;;;;;;33.78;15.05;101141.11;108109;1253;60286;-67
2024/04/12 08:11:10;;;;;;;7.40;2.30;;;;;;;33.80;14.98;101133.88;108137;1253;73501;-67
2024/04/12 08:13:44;;;;;;;8.60;2.60;;;;;;;33.96;15.23;101128.16;108128;1255;69338;-68
2024/04/12 08:16:14;;;;;;;6.10;2.00;;;;;;;33.93;15.02;101129.64;108115;1253;64113;-68
2024/04/12 08:18:44;;;;;;;10.10;2.20;;;;;;;33.56;14.75;101130.73;108109;1253;61245;-68
2024/04/12 08:21:19;;;;;;;7.40;2.10;;;;;;;33.41;15.37;101126.20;108053;1253;61229;-68
2024/04/12 08:23:51;;;;;;;6.70;2.20;;;;;;;33.30;15.47;101114.17;108220;1253;73395;-68
2024/04/12 08:26:27;;;;;;;8.80;2.40;;;;;;;33.24;15.57;101119.27;108124;1253;69527;-68
2024/04/12 08:28:54;;;;;;;8.70;1.80;;;;;;;33.25;15.50;101112.40;108089;1253;72613;-69
2024/04/12 08:31:23;;;;;;;11.60;2.30;;;;;;;33.32;15.41;101113.98;108207;1253;61201;-68
2024/04/12 08:33:52;;;;;;;8.90;2.70;;;;;;;33.42;15.44;101110.52;108123;1256;60113;-68
2024/04/12 08:36:19;;;;;;;5.80;2.00;;;;;;;33.12;15.13;101107.92;108159;1253;74934;-69
2024/04/12 08:39:11;;;;;;;14.90;2.20;;;;;;;32.83;15.15;101110.92;108148;1253;70461;-67
2024/04/12 08:41:40;;;;;;;7.40;2.30;;;;;;;32.57;15.58;101112.89;108097;1253;73870;-68
2024/04/12 08:44:09;;;;;;;6.60;1.90;;;;;;;32.37;15.88;101108.37;107958;1253;61670;-68
2024/04/12 08:46:38;;;;;;;;;;;;;;;32.37;15.57;101103.25;108120;1253;61191;-68
2024/04/12 08:49:08;;;;;;;5.60;2.10;;;;;;;32.60;15.79;101101.80;108187;1256;74452;-67
2024/04/12 08:51:41;;;;;;;10.00;1.90;;;;;;;32.66;15.57;101092.50;107995;1253;70316;-68
2024/04/12 08:54:09;;;;;;;5.10;2.20;;;;;;;32.95;15.28;101085.02;108052;1253;73072;-69
2024/04/12 08:56:36;;;;;;;8.30;2.30;;;;;;;33.20;15.27;101088.08;107985;1255;61061;-67
2024/04/12 08:59:06;;;;;;;6.30;2.10;;;;;;;33.15;15.04;101080.71;108116;1253;61116;-67
2024/04/12 09:01:33;;;;;;;6.10;1.60;;;;;;;33.02;15.13;101074.67;107966;1253;74754;-67
2024/04/12 09:04:14;;;;;;;7.20;1.60;;;;;;;33.01;15.09;101068.98;108233;1253;69288;-67
2024/04/12 09:06:42;;;;;;;5.40;2.00;;;;;;;33.16;15.02;101072.25;108180;1253;71483;-68
2024/04/12 09:09:13;;;;;;;11.80;2.30;;;;;;;33.23;15.29;101069.14;107987;1253;61104;-68
2024/04/12 09:11:44;;;;;;;5.00;1.70;;;;;;;33.15;15.46;101064.77;108168;1253;61109;-67
2024/04/12 09:14:19;;;;;;;10.00;2.20;;;;;;;33.28;14.86;101061.77;108048;1253;74670;-67
2024/04/12 09:16:49;;;;;;;6.20;1.60;;;;;;;33.46;15.13;101058.75;108078;1253;69227;-68
2024/04/12 09:19:16;;;;;;;9.10;2.20;;;;;;;33.46;15.21;101054.52;108070;1253;72650;-67
2024/04/12 09:21:51;;;;;;;7.10;2.00;;;;;;;33.33;14.71;101058.08;108054;1253;61168;-67
2024/04/12 09:24:27;;;;;;;7.90;2.10;;;;;;;33.11;14.76;101056.69;107870;1253;60947;-68
2024/04/12 09:26:58;;;;;;;4.60;1.80;;;;;;;33.06;14.40;101050.30;108043;1253;76342;-68
2024/04/12 09:29:27;;;;;;;6.30;1.80;;;;;;;33.08;14.70;101043.85;108053;1257;70429;-67
2024/04/12 09:34:41;;;;;;;7.40;2.50;;;;;;;32.60;14.76;101037.83;107991;1253;61876;-68
2024/04/12 09:37:28;;;;;;;4.50;1.70;;;;;;;32.30;14.90;101033.79;108140;1253;61450;-67
2024/04/12 09:42:44;;;;;;;7.20;2.30;;;;;;;31.64;15.24;101025.14;108080;1253;70840;-67
2024/04/12 09:45:20;;;;;;;4.50;1.90;;;;;;;31.96;15.56;101014.59;108070;1253;71140;-67
2024/04/12 10:38:05;;;;;;;7.80;1.80;;;;;;;32.57;15.01;100979.27;108193;1253;70924;-67
2024/04/12 10:40:36;;;;;;;3.70;1.20;;;;;;;32.66;14.91;100976.77;108080;1253;74426;-68
2024/04/12 10:43:05;;;;;;;4.70;1.90;;;;;;;32.58;14.59;100975.36;108098;1253;61124;-67
2024/04/12 10:45:36;;;;;;;6.20;1.60;;;;;;;32.41;14.84;100973.33;108140;1253;61124;-69
2024/04/12 10:48:04;;;;;;;5.00;1.80;;;;;;;32.39;15.05;100977.31;108153;1258;74129;-69
2024/04/12 10:50:36;;;;;;;4.20;1.80;;;;;;;32.39;14.94;100965.29;108119;1253;72061;-68
2024/04/12 10:53:06;;;;;;;7.30;2.20;;;;;;;32.44;15.18;100960.74;107943;1253;72335;-67
2024/04/12 10:55:35;;;;;;;6.30;1.80;;;;;;;32.33;15.14;100951.45;107970;1253;61116;-67
2024/04/12 10:58:05;;;;;;;18.80;2.10;;;;;;;32.33;15.17;100950.05;108117;1257;61228;-68
2024/04/12 11:00:35;;;;;;;5.10;2.30;;;;;;;32.40;15.53;100944.48;107922;1260;75901;-68
2024/04/12 11:03:14;;;;;;;4.50;1.70;;;;;;;32.52;15.50;100936.27;108103;1253;70659;-67
2024/04/12 11:05:48;;;;;;;7.30;1.90;;;;;;;32.40;15.45;100933.63;108042;1253;73443;-67
2024/04/12 11:08:14;;;;;;;5.60;1.60;;;;;;;32.51;15.56;100932.74;108076;1253;62131;-67
2024/04/12 11:10:57;;;;;;;3.70;1.50;;;;;;;32.70;15.49;100930.29;108078;1253;61131;-68
2024/04/12 11:13:35;;;;;;;5.70;2.10;;;;;;;32.92;15.75;100925.47;108105;1253;74654;-68
2024/04/12 11:32:42;;;;;;;6.60;2.70;;;;;;;32.97;16.42;100906.14;108090;1253;73889;-67
2024/04/12 11:35:12;;;;;;;6.50;3.00;;;;;;;32.68;16.73;100900.31;108085;1253;61119;-68
2024/04/12 11:37:41;;;;;;;10.50;2.40;;;;;;;32.29;17.26;100899.67;108062;1253;61405;-68
2024/04/12 11:40:16;;;;;;;12.10;5.80;;;;;;;32.04;17.68;100904.55;108069;1253;72978;-67
2024/04/12 11:42:46;;;;;;;16.20;6.70;;;;;;;31.89;17.83;100903.34;108081;1253;70350;-67
2024/04/12 11:45:17;;;;;;;7.80;3.30;;;;;;;31.93;17.81;100894.72;108094;1257;72953;-67
2024/04/12 11:47:44;;;;;;;;;;;;;;;32.21;17.75;100890.08;108120;1253;60742;-67
2024/04/12 11:50:11;;;;;;;6.90;2.10;;;;;;;32.19;17.65;100881.80;107894;1253;61134;-67
2024/04/12 11:52:41;;;;;;;11.40;3.00;;;;;;;32.10;17.75;100880.31;108068;1253;76048;-67
2024/04/12 11:55:08;;;;;;;11.90;4.00;;;;;;;32.30;17.67;100873.34;108115;1253;71366;-67
2024/04/12 11:57:37;;;;;;;8.70;3.30;;;;;;;32.63;17.73;100872.36;108081;1253;72198;-67
2024/04/12 12:00:09;;;;;;;3.70;1.50;;;;;;;32.61;17.56;100867.04;108037;1253;61637;-67
2024/04/12 12:02:42;;;;;;;7.90;2.10;;;;;;;32.59;17.50;100862.00;107909;1253;61726;-67
2024/04/12 12:05:09;;;;;;;;;;;;;;;32.69;17.68;100851.70;108031;1256;74802;-67
2024/04/12 12:07:36;;;;;;;4.70;2.40;;;;;;;32.54;17.83;100849.34;108065;1253;70594;-67
2024/04/12 12:10:08;;;;;;;5.20;1.90;;;;;;;32.38;17.80;100848.20;108104;1253;73685;-68
2024/04/12 12:12:37;;;;;;;4.80;2.20;;;;;;;32.16;17.78;100846.56;108016;1253;61380;-68
2024/04/12 12:15:08;;;;;;;7.10;2.60;;;;;;;32.13;18.11;100850.59;107952;1253;61094;-68
2024/04/12 12:17:35;;;;;;;9.90;3.20;;;;;;;32.04;18.17;100850.10;108089;1253;75561;-68
2024/04/12 12:20:04;;;;;;;5.50;2.90;;;;;;;31.93;18.20;100840.00;108127;1253;70159;-68
2024/04/12 12:22:32;;;;;;;6.60;2.70;;;;;;;31.53;18.31;100835.45;108163;1253;71969;-67
2024/04/12 12:24:59;;;;;;;5.50;1.90;;;;;;;31.09;18.86;100832.38;108128;1253;61326;-67
2024/04/12 12:27:32;;;;;;;5.90;1.70;;;;;;;30.84;19.22;100838.73;108103;1253;61637;-67
2024/04/12 12:30:02;;;;;;;7.30;2.00;;;;;;;30.88;19.21;100836.93;108150;1256;75962;-67
2024/04/12 12:32:32;;;;;;;10.90;2.40;;;;;;;30.93;19.29;100837.14;108128;1253;70697;-67
2024/04/12 12:34:59;;;;;;;4.80;2.00;;;;;;;31.02;18.92;100831.55;108108;1253;73250;-67
2024/04/12 12:37:28;;;;;;;6.20;1.90;;;;;;;31.28;19.22;100825.05;108095;1253;61245;-67
2024/04/12 12:39:55;;;;;;;5.60;1.70;;;;;;;31.53;19.06;100820.25;108107;1253;61096;-67
2024/04/12 12:42:22;;;;;;;7.80;2.30;;;;;;;31.45;19.27;100826.67;108065;1253;75588;-66
2024/04/12 12:44:49;;;;;;;6.50;2.00;;;;;;;31.27;19.27;100823.32;108097;1253;71374;-68
2024/04/12 12:47:20;;;;;;;6.20;2.10;;;;;;;31.37;19.28;100817.43;108085;1253;72639;-67
2024/04/12 12:49:46;;;;;;;5.30;2.50;;;;;;;31.63;19.14;100813.31;107938;1256;61866;-67
2024/04/12 12:52:13;;;;;;;4.50;1.50;;;;;;;31.54;19.33;100808.48;108002;1256;61202;-67
2024/04/12 12:54:43;;;;;;;8.50;2.00;;;;;;;31.31;19.29;100801.95;108015;1254;74162;-67